Time;durP1;ratioP1;P1;durP2;ratioP2;P2;SDS_P1;SDS_P2;PMS_P1;PMS_P2;Temp;Humidity;BMP_temperature;BMP_pressure;BME280_temperature;BME280_humidity;BME280_pressure;Samples;Min_cycle;Max_cycle;Signal;HPM_P1;HPM_P2
2021/03/06 00:01:00;;;;;;;61.27;21.47;;;;;;;0.24;62.47;102041.09;5141197;56;1138370;-76
2021/03/06 00:06:06;;;;;;;60.70;24.50;;;;;;;0.19;62.60;102030.73;5141142;56;1138398;-79
2021/03/06 00:11:11;;;;;;;84.63;26.27;;;;;;;0.23;62.52;102040.67;5141118;57;1138622;-77
2021/03/06 00:16:17;;;;;;;65.37;23.73;;;;;;;0.19;62.69;102041.13;5141179;56;1138472;-83
2021/03/06 00:21:22;;;;;;;50.93;19.53;;;;;;;0.10;62.96;102036.05;5141212;56;1138414;-80
2021/03/06 00:26:28;;;;;;;52.07;18.30;;;;;;;0.10;62.96;102036.05;5140991;56;1139201;-81
2021/03/06 00:31:36;;;;;;;69.83;24.93;;;;;;;0.09;62.99;102035.61;5141241;56;1138877;-75
2021/03/06 00:36:41;;;;;;;56.33;19.87;;;;;;;0.08;63.00;102036.93;5141452;56;1139152;-81
2021/03/06 00:41:47;;;;;;;72.35;24.87;;;;;;;0.05;62.97;102035.66;5141197;56;1139141;-80
2021/03/06 00:46:53;;;;;;;62.58;21.68;;;;;;;-0.01;62.95;102025.75;5141343;57;1138861;-80
2021/03/06 00:51:58;;;;;;;94.33;33.13;;;;;;;-0.07;62.94;102023.20;5138068;56;1141185;-79
2021/03/06 00:57:05;;;;;;;74.43;29.57;;;;;;;-0.13;63.04;102021.09;5140930;56;1141217;-78
2021/03/06 01:02:11;;;;;;;76.10;32.37;;;;;;;-0.16;63.25;102015.50;5141045;56;1141125;-77
2021/03/06 01:07:17;;;;;;;82.27;33.87;;;;;;;-0.18;63.33;102018.55;5141303;56;1141137;-79
2021/03/06 01:12:23;;;;;;;54.50;22.87;;;;;;;-0.19;63.52;102011.62;5141420;56;1141229;-80
2021/03/06 01:17:28;;;;;;;58.10;21.27;;;;;;;-0.21;63.51;102008.17;5141431;56;1140999;-82
2021/03/06 01:22:35;;;;;;;60.57;23.03;;;;;;;-0.25;63.49;102004.30;5139693;56;1141185;-78
2021/03/06 01:27:42;;;;;;;74.03;27.02;;;;;;;-0.28;63.58;102004.33;5138943;56;1140931;-78
2021/03/06 01:32:47;;;;;;;83.85;25.17;;;;;;;-0.30;63.64;101992.64;5135265;56;1141047;-84
2021/03/06 01:37:54;;;;;;;85.22;31.02;;;;;;;-0.33;63.67;102004.39;5150200;56;1141221;-83
2021/03/06 01:43:04;;;;;;;46.77;16.73;;;;;;;-0.38;63.76;102000.52;5150295;56;1141236;-86
2021/03/06 01:48:10;;;;;;;61.40;21.23;;;;;;;-0.41;63.87;102002.28;5150278;56;1141039;-77
2021/03/06 01:53:16;;;;;;;35.03;11.70;;;;;;;-0.51;63.75;101997.61;5150128;56;1141227;-82
2021/03/06 01:58:22;;;;;;;36.47;12.77;;;;;;;-0.57;63.81;102034.03;5150024;56;1141272;-78
2021/03/06 02:03:27;;;;;;;26.00;10.63;;;;;;;-0.81;63.44;101993.52;5150090;56;1141287;-79
2021/03/06 02:08:33;;;;;;;25.77;11.80;;;;;;;-0.86;64.18;102009.56;5150205;56;1141067;-83
2021/03/06 02:13:51;;;;;;;25.93;11.43;;;;;;;-0.90;64.57;102006.55;5150300;56;1141125;-81
2021/03/06 02:19:11;;;;;;;24.92;10.25;;;;;;;-0.89;64.71;102003.52;5150651;56;1140989;-78
2021/03/06 02:24:43;;;;;;;29.77;9.43;;;;;;;-0.97;64.48;102001.42;5158015;56;1141085;-82
2021/03/06 02:30:08;;;;;;;27.30;10.40;;;;;;;-1.03;64.87;102006.64;5160730;56;1138468;-81
2021/03/06 02:35:21;;;;;;;24.93;10.90;;;;;;;-1.03;64.91;102006.64;5159530;56;1140750;-82
2021/03/06 02:40:30;;;;;;;35.28;13.10;;;;;;;-1.12;65.05;102001.09;5160702;56;1140558;-79
2021/03/06 02:45:40;;;;;;;35.03;12.83;;;;;;;-1.10;65.12;102008.43;5160543;56;1140752;-80
2021/03/06 02:50:46;;;;;;;29.23;11.33;;;;;;;-1.14;65.17;102011.91;5160589;56;1140550;-82
2021/03/06 02:55:51;;;;;;;30.65;10.70;;;;;;;-1.19;65.39;102009.77;5160117;56;1141074;-79
2021/03/06 03:01:40;;;;;;;31.52;11.35;;;;;;;-1.20;65.24;102024.91;5160359;56;1141210;-80
2021/03/06 03:06:49;;;;;;;25.23;9.70;;;;;;;-1.21;65.47;102024.05;5155402;56;1140959;-82
2021/03/06 03:12:26;;;;;;;22.27;9.05;;;;;;;-1.38;65.34;102019.39;5160444;56;1138894;-79
2021/03/06 03:17:45;;;;;;;27.67;8.73;;;;;;;-1.54;65.54;102018.59;5159989;56;1138967;-79
2021/03/06 03:22:58;;;;;;;30.48;9.23;;;;;;;-1.66;65.87;102019.91;5159762;56;1138909;-81
2021/03/06 03:28:06;;;;;;;28.38;9.03;;;;;;;-1.65;66.28;102020.78;5160521;56;1138931;-81
2021/03/06 03:33:14;;;;;;;22.27;8.83;;;;;;;-1.71;66.34;102024.70;5160479;56;1138853;-80
2021/03/06 03:38:23;;;;;;;18.67;8.60;;;;;;;-1.79;66.56;102020.83;5160511;56;1139073;-79
2021/03/06 03:43:29;;;;;;;25.00;9.60;;;;;;;-1.84;66.83;102026.05;5160657;56;1139245;-78
2021/03/06 03:48:38;;;;;;;23.75;8.83;;;;;;;-1.86;67.03;102027.77;5161295;56;1139224;-84
2021/03/06 03:53:44;;;;;;;22.48;8.65;;;;;;;-1.88;67.39;102039.02;5169614;56;1138856;-79
2021/03/06 03:58:50;;;;;;;25.60;8.65;;;;;;;-1.93;67.44;102039.02;5161548;56;1139149;-77
2021/03/06 04:03:55;;;;;;;22.20;9.20;;;;;;;-1.95;67.61;102039.45;5161286;56;1138939;-80
2021/03/06 04:09:01;;;;;;;20.50;9.03;;;;;;;-1.99;67.62;102036.87;5161672;56;1138831;-78
2021/03/06 04:14:07;;;;;;;21.33;8.17;;;;;;;-2.05;67.81;102041.63;5152805;56;1138509;-77
2021/03/06 04:19:12;;;;;;;21.23;8.63;;;;;;;-2.05;68.11;102042.93;5144825;56;1139102;-80
2021/03/06 04:24:18;;;;;;;23.67;8.90;;;;;;;-2.02;68.15;102041.63;5137770;56;1138445;-80
2021/03/06 04:29:24;;;;;;;28.70;10.77;;;;;;;-1.96;68.05;102035.12;5118308;56;1138533;-83
2021/03/06 04:34:29;;;;;;;36.43;13.67;;;;;;;-1.89;68.32;102035.98;5076412;57;1140478;-75
2021/03/06 04:39:35;;;;;;;32.75;12.43;;;;;;;-1.75;68.36;102037.25;5076289;57;1140552;-79
2021/03/06 04:44:41;;;;;;;24.10;8.40;;;;;;;-1.67;68.10;102039.37;5080141;56;1140607;-78
2021/03/06 04:49:46;;;;;;;22.17;9.60;;;;;;;-1.80;67.58;102034.22;5136949;56;1138915;-77
2021/03/06 04:54:52;;;;;;;22.73;9.48;;;;;;;-1.95;67.82;102034.26;5140428;56;1138610;-77
2021/03/06 04:59:59;;;;;;;24.50;9.53;;;;;;;-1.97;68.06;102039.87;5098231;56;1138898;-81
2021/03/06 05:05:09;;;;;;;27.27;9.70;;;;;;;-1.99;68.16;102048.12;5105968;56;1138531;-84
2021/03/06 05:10:14;;;;;;;43.97;20.23;;;;;;;-1.90;68.46;102044.63;5077181;57;1139073;-81
2021/03/06 05:15:21;;;;;;;29.23;11.47;;;;;;;-1.93;68.20;102044.63;5114327;56;1140801;-78
2021/03/06 05:20:27;;;;;;;24.23;11.47;;;;;;;-2.04;68.16;102045.95;5136974;57;1140873;-80
2021/03/06 05:25:33;;;;;;;34.43;12.93;;;;;;;-2.15;68.36;102052.89;5137288;56;1140505;-81
2021/03/06 05:30:38;;;;;;;41.13;19.37;;;;;;;-2.26;68.59;102054.17;5145980;56;1140496;-78
2021/03/06 05:35:44;;;;;;;182.63;80.57;;;;;;;-2.32;68.96;102053.33;5145919;56;1140458;-74
2021/03/06 05:40:50;;;;;;;69.03;32.53;;;;;;;-2.40;69.11;102045.97;5146130;56;1143137;-80
2021/03/06 05:45:57;;;;;;;202.70;103.85;;;;;;;-2.43;69.35;102044.66;5145983;56;1141009;-76
2021/03/06 05:51:03;;;;;;;30.00;14.70;;;;;;;-2.35;69.47;102052.02;5145522;56;1145434;-81
2021/03/06 05:56:11;;;;;;;29.63;9.67;;;;;;;-2.32;69.48;102055.91;5145814;56;1141257;-77
2021/03/06 06:01:17;;;;;;;27.67;10.00;;;;;;;-2.25;69.62;102057.63;5146114;56;1138937;-80
2021/03/06 06:06:23;;;;;;;26.87;10.77;;;;;;;-2.00;70.56;102070.16;5145721;56;1141136;-82
2021/03/06 06:11:33;;;;;;;31.20;11.67;;;;;;;-1.66;70.90;102070.49;5146011;56;1141020;-81
2021/03/06 06:16:40;;;;;;;22.17;9.70;;;;;;;-1.41;70.22;102077.79;5145829;56;1141190;-80
2021/03/06 06:21:48;;;;;;;57.80;15.60;;;;;;;-1.32;69.57;102082.07;5145908;56;1139122;-78
2021/03/06 06:27:08;;;;;;;22.87;10.03;;;;;;;-1.27;69.69;102082.92;5145857;56;1141259;-77
2021/03/06 06:32:12;;;;;;;23.00;8.97;;;;;;;-0.99;70.69;102087.55;5145057;56;1141230;-81
2021/03/06 06:37:18;;;;;;;25.50;9.80;;;;;;;-0.63;70.61;102090.39;5145771;56;1138861;-80
2021/03/06 06:42:37;;;;;;;30.43;6.10;;;;;;;-0.57;69.37;102096.83;5146079;56;1138842;-79
2021/03/06 06:47:49;;;;;;;16.83;8.10;;;;;;;-0.66;69.10;102093.00;5145891;56;1138875;-84
2021/03/06 06:52:54;;;;;;;33.63;10.90;;;;;;;-0.62;69.67;102105.11;5145523;56;1139152;-77
2021/03/06 06:58:00;;;;;;;19.52;7.37;;;;;;;-0.45;69.78;102110.59;5145729;56;1141113;-78
2021/03/06 07:03:07;;;;;;;34.95;10.78;;;;;;;-0.33;69.65;102112.27;5146147;56;1138857;-81
2021/03/06 07:08:26;;;;;;;21.13;8.53;;;;;;;-0.19;69.66;102113.46;5145560;56;1140933;-79
2021/03/06 07:13:42;;;;;;;32.93;20.33;;;;;;;0.02;69.44;102117.60;5128975;56;1139029;-79
2021/03/06 07:19:01;;;;;;;33.10;15.50;;;;;;;0.19;69.63;102113.98;5160621;56;1138890;-81
2021/03/06 07:24:08;;;;;;;133.40;28.33;;;;;;;0.41;69.46;102103.38;5168887;56;1139150;-82
2021/03/06 07:29:14;;;;;;;59.20;14.47;;;;;;;0.49;68.81;102105.00;5152144;56;1140658;-79
2021/03/06 07:34:22;;;;;;;36.60;11.47;;;;;;;0.58;68.85;102098.41;5127731;56;1139046;-80
2021/03/06 07:39:31;;;;;;;21.83;7.17;;;;;;;0.62;69.11;102111.80;5131081;56;1138515;-80
2021/03/06 07:44:40;;;;;;;18.17;8.10;;;;;;;0.80;68.93;102109.86;5083236;56;1136276;-82
2021/03/06 07:49:48;;;;;;;17.77;8.40;;;;;;;0.95;68.75;102109.23;5101541;56;1136521;-81
2021/03/06 07:54:56;;;;;;;17.57;6.40;;;;;;;1.06;67.93;102113.03;5064955;57;1136732;-83
2021/03/06 08:00:02;;;;;;;15.85;6.58;;;;;;;1.10;67.85;102108.62;5064896;57;1136438;-79
2021/03/06 08:05:45;;;;;;;33.23;13.10;;;;;;;1.18;67.76;102098.53;5064601;57;1136858;-82
2021/03/06 08:11:06;;;;;;;39.40;15.23;;;;;;;1.43;68.28;102104.69;5064488;57;1139135;-77
2021/03/06 08:16:32;;;;;;;21.07;8.00;;;;;;;1.69;67.34;102099.49;5064563;57;1138862;-79
2021/03/06 08:21:40;;;;;;;17.80;7.57;;;;;;;1.82;67.58;102094.11;5064742;57;1137078;-81
2021/03/06 08:27:02;;;;;;;8.43;3.30;;;;;;;1.98;67.24;102095.58;5064994;57;1137099;-81
2021/03/06 08:32:31;;;;;;;17.97;6.27;;;;;;;2.13;65.97;102098.36;5068534;57;1135107;-80
2021/03/06 08:37:37;;;;;;;17.67;6.57;;;;;;;2.29;66.18;102103.73;5073905;57;1136841;-78
2021/03/06 08:42:47;;;;;;;14.17;5.00;;;;;;;2.44;65.65;102099.06;5129540;56;1136948;-80
2021/03/06 08:48:04;;;;;;;16.37;6.93;;;;;;;2.48;63.64;102113.79;5116149;56;1146290;-78
2021/03/06 08:53:16;;;;;;;9.27;4.67;;;;;;;2.50;64.34;102107.23;5102283;56;1136788;-77
2021/03/06 08:58:22;;;;;;;9.63;4.23;;;;;;;2.70;64.25;102104.25;5139865;56;1134796;-79
2021/03/06 09:03:29;;;;;;;7.77;4.07;;;;;;;2.77;62.86;102100.16;5124759;56;1134889;-81
2021/03/06 09:08:34;;;;;;;14.27;4.77;;;;;;;2.95;62.81;102102.84;5129180;56;1134702;-78
2021/03/06 09:13:40;;;;;;;11.60;5.13;;;;;;;2.96;62.54;102094.12;5146298;56;1136771;-79
2021/03/06 09:18:46;;;;;;;10.13;3.57;;;;;;;3.07;62.00;102098.66;5124366;56;1137258;-81
2021/03/06 09:23:54;;;;;;;14.47;5.03;;;;;;;3.21;60.57;102083.98;5133659;56;1136883;-78
2021/03/06 09:29:00;;;;;;;5.42;2.85;;;;;;;3.28;57.65;102088.20;5149479;56;1136821;-81
2021/03/06 09:34:05;;;;;;;5.47;2.35;;;;;;;3.36;58.06;102076.27;5104860;56;1134788;-78
2021/03/06 09:39:11;;;;;;;5.03;2.00;;;;;;;3.49;57.96;102079.88;5141098;56;1134225;-79
2021/03/06 09:44:17;;;;;;;4.97;2.10;;;;;;;3.60;56.69;102069.59;5104344;56;1134235;-79
2021/03/06 09:49:23;;;;;;;2.43;1.57;;;;;;;3.72;54.96;102068.84;5127117;56;1134304;-82
2021/03/06 09:54:33;;;;;;;4.03;2.13;;;;;;;3.72;55.11;102059.69;5140004;56;1134436;-82
2021/03/06 09:59:41;;;;;;;6.20;2.30;;;;;;;3.83;56.03;102064.64;5112554;56;1134258;-81
2021/03/06 10:04:51;;;;;;;7.83;2.57;;;;;;;3.94;55.81;102057.41;5125872;56;1134355;-78
2021/03/06 10:09:58;;;;;;;4.58;2.47;;;;;;;4.14;52.47;102048.56;5117987;56;1134647;-79
2021/03/06 10:15:04;;;;;;;4.30;0.90;;;;;;;4.20;51.10;102048.41;5110161;56;1134569;-80
2021/03/06 10:20:11;;;;;;;5.10;2.47;;;;;;;4.23;49.59;102047.02;5113041;56;1134629;-82
2021/03/06 10:25:28;;;;;;;7.10;2.20;;;;;;;4.37;51.08;102032.23;5108207;56;1134426;-85
2021/03/06 10:30:38;;;;;;;3.92;1.82;;;;;;;4.59;50.03;102041.20;5133651;56;1134494;-82
2021/03/06 10:35:51;;;;;;;6.60;2.57;;;;;;;4.59;49.01;102034.64;5136425;56;1134655;-80
2021/03/06 10:41:02;;;;;;;6.84;2.74;;;;;;;4.67;50.84;102033.58;5142043;56;1134420;-82
2021/03/06 10:46:21;;;;;;;5.50;2.15;;;;;;;4.76;50.18;102024.98;5113371;56;1134383;-81
2021/03/06 10:51:51;;;;;;;5.73;2.10;;;;;;;4.89;50.41;102020.23;5065126;56;1134362;-81
2021/03/06 10:57:07;;;;;;;2.73;1.50;;;;;;;4.96;49.98;102019.16;5149001;56;1134208;-81
2021/03/06 11:02:29;;;;;;;9.13;2.40;;;;;;;5.07;50.21;102014.44;5141251;56;1134620;-81
2021/03/06 11:07:34;;;;;;;3.83;2.20;;;;;;;5.07;50.38;102007.02;5120897;56;1135003;-79
2021/03/06 11:12:52;;;;;;;2.93;2.30;;;;;;;5.10;51.66;101995.13;5086601;56;1134263;-80
2021/03/06 11:17:59;;;;;;;10.97;2.13;;;;;;;5.20;50.86;101987.37;5063964;56;1134354;-81
2021/03/06 11:23:06;;;;;;;5.92;1.87;;;;;;;5.27;50.77;101990.21;5041155;57;1136379;-80
2021/03/06 11:28:16;;;;;;;2.20;1.70;;;;;;;5.33;47.31;101979.98;4998172;58;1134824;-82
2021/03/06 11:33:22;;;;;;;4.67;2.20;;;;;;;5.44;48.81;101962.13;5039692;57;1134691;-81
2021/03/06 11:38:28;;;;;;;3.20;1.67;;;;;;;5.48;48.48;101951.94;5055591;56;1134746;-82
2021/03/06 11:43:35;;;;;;;6.20;1.97;;;;;;;5.54;49.61;101949.94;5125904;56;1134612;-81
2021/03/06 11:48:40;;;;;;;4.63;2.20;;;;;;;5.59;48.58;101940.16;5152308;56;1134283;-83
2021/03/06 11:53:46;;;;;;;9.37;2.70;;;;;;;5.74;49.69;101930.03;5070202;56;1134250;-81
2021/03/06 11:58:51;;;;;;;4.40;1.37;;;;;;;5.61;50.40;101932.23;5008751;57;1134940;-82
2021/03/06 12:03:57;;;;;;;2.80;1.30;;;;;;;5.37;50.06;101928.66;5004289;57;1134585;-80
2021/03/06 12:09:03;;;;;;;9.10;1.90;;;;;;;4.94;50.99;101925.27;5001504;57;1134805;-79
2021/03/06 12:14:08;;;;;;;10.93;2.50;;;;;;;5.03;54.15;101921.06;4980161;57;1134515;-82
2021/03/06 12:19:14;;;;;;;7.63;3.57;;;;;;;5.37;52.23;101920.78;5095109;57;1136727;-81
2021/03/06 12:24:20;;;;;;;6.70;1.60;;;;;;;5.71;50.31;101924.89;5043829;56;1134420;-79
2021/03/06 12:29:25;;;;;;;8.83;2.73;;;;;;;5.74;49.63;101912.97;5095306;56;1134983;-83
2021/03/06 12:34:31;;;;;;;4.03;1.87;;;;;;;5.71;49.51;101916.56;5128152;56;1134294;-80
2021/03/06 12:39:36;;;;;;;6.00;1.20;;;;;;;5.63;50.39;101899.78;5144509;56;1134330;-83
2021/03/06 12:44:42;;;;;;;4.42;1.40;;;;;;;5.61;48.73;101895.03;5142630;56;1134514;-81
2021/03/06 12:49:47;;;;;;;11.73;1.83;;;;;;;5.76;49.33;101896.72;5144731;56;1134438;-81
2021/03/06 12:54:56;;;;;;;1.86;1.56;;;;;;;5.83;48.72;101887.69;5165671;56;1136595;-82
2021/03/06 13:00:01;;;;;;;2.72;1.07;;;;;;;5.94;49.07;101885.59;5120316;56;1135183;-85
2021/03/06 13:05:08;;;;;;;8.55;1.50;;;;;;;6.05;49.23;101879.48;5138647;56;1134358;-81
2021/03/06 13:10:14;;;;;;;2.60;1.10;;;;;;;5.84;47.81;101882.39;5144754;56;1134497;-84
2021/03/06 13:15:19;;;;;;;2.97;1.20;;;;;;;5.61;48.65;101887.16;5134667;56;1134277;-82
2021/03/06 13:20:25;;;;;;;1.57;1.20;;;;;;;5.46;48.49;101881.59;5138309;56;1134266;-84
2021/03/06 13:25:39;;;;;;;3.93;1.07;;;;;;;5.45;48.94;101883.36;5138068;56;1134465;-84
2021/03/06 13:30:40;;;;;;;4.93;1.67;;;;;;;5.70;47.66;101874.16;5105821;56;1134224;-78
2021/03/06 13:35:45;;;;;;;6.87;2.00;;;;;;;5.77;48.93;101869.10;5145413;56;1134385;-87
2021/03/06 13:40:53;;;;;;;7.30;1.80;;;;;;;5.93;47.88;101871.61;5036711;57;1134596;-81
2021/03/06 13:45:58;;;;;;;1.10;0.93;;;;;;;5.92;45.35;101860.70;4982781;58;1134490;-84
2021/03/06 13:51:06;;;;;;;6.17;2.67;;;;;;;5.94;47.06;101864.13;5105093;56;1134663;-84
2021/03/06 13:56:13;;;;;;;19.85;6.85;;;;;;;5.83;48.56;101862.75;5147279;56;1134402;-80
2021/03/06 14:01:24;;;;;;;4.47;1.90;;;;;;;5.93;47.17;101861.55;5127022;56;1136914;-81
2021/03/06 14:06:31;;;;;;;3.70;1.17;;;;;;;5.83;45.88;101850.48;5102819;56;1134561;-85
2021/03/06 14:11:37;;;;;;;9.47;3.43;;;;;;;5.77;46.34;101837.60;5120450;56;1134509;-81
2021/03/06 14:16:43;;;;;;;18.00;11.70;;;;;;;5.86;46.03;101841.64;5124123;56;1134391;-82
2021/03/06 14:21:48;;;;;;;55.47;22.93;;;;;;;5.83;46.52;101836.05;5121473;56;1138788;-84
2021/03/06 14:26:56;;;;;;;37.80;18.05;;;;;;;5.90;45.83;101828.84;5125023;56;1139045;-81
2021/03/06 14:32:02;;;;;;;11.93;6.97;;;;;;;5.78;46.33;101831.89;5114830;56;1138501;-79
2021/03/06 14:37:08;;;;;;;3.73;2.03;;;;;;;5.79;47.27;101820.03;5112498;56;1136704;-77
2021/03/06 14:42:17;;;;;;;3.67;1.37;;;;;;;5.77;46.64;101816.60;5128236;56;1134775;-80
2021/03/06 14:47:22;;;;;;;5.30;1.57;;;;;;;5.91;47.15;101810.41;5133120;56;1134407;-78
2021/03/06 14:52:28;;;;;;;4.83;1.70;;;;;;;6.09;46.12;101808.86;5138399;56;1134814;-79
2021/03/06 14:57:34;;;;;;;6.20;2.17;;;;;;;6.15;46.72;101805.98;5142739;56;1135012;-80
2021/03/06 15:02:39;;;;;;;8.60;1.40;;;;;;;5.95;46.41;101796.71;5139685;56;1134762;-79
2021/03/06 15:07:46;;;;;;;2.43;1.93;;;;;;;5.83;46.25;101780.91;5143812;56;1134995;-80
2021/03/06 15:12:52;;;;;;;3.90;1.73;;;;;;;5.74;47.33;101789.59;5117568;56;1135061;-80
2021/03/06 15:17:59;;;;;;;1.60;1.00;;;;;;;5.68;47.42;101778.00;5111284;56;1134879;-78
2021/03/06 15:23:05;;;;;;;7.22;1.37;;;;;;;5.72;47.38;101779.61;5114586;56;1134827;-79
2021/03/06 15:28:11;;;;;;;3.15;1.45;;;;;;;5.59;47.44;101785.32;5131151;56;1134957;-79
2021/03/06 15:33:16;;;;;;;5.50;1.57;;;;;;;5.32;48.01;101778.45;5131022;56;1134964;-78
2021/03/06 15:38:22;;;;;;;7.47;2.17;;;;;;;5.11;48.65;101773.50;5134215;56;1135167;-78
2021/03/06 15:43:28;;;;;;;4.97;1.43;;;;;;;4.99;49.39;101766.06;5133051;56;1134819;-81
2021/03/06 15:48:33;;;;;;;3.63;1.10;;;;;;;4.83;48.75;101766.19;5131038;56;1134875;-79
2021/03/06 15:53:39;;;;;;;3.53;1.50;;;;;;;4.72;49.28;101763.94;5132569;56;1134793;-79
2021/03/06 15:58:44;;;;;;;105.53;30.13;;;;;;;4.62;49.51;101760.34;5148407;56;1134582;-78
2021/03/06 16:03:50;;;;;;;228.90;68.47;;;;;;;4.50;50.11;101761.16;5142192;56;1141008;-78
2021/03/06 16:08:56;;;;;;;371.37;86.17;;;;;;;4.37;50.18;101752.44;5139117;56;1140895;-80
2021/03/06 16:14:01;;;;;;;238.53;47.67;;;;;;;4.23;50.60;101749.81;5146200;56;1140966;-81
2021/03/06 16:19:07;;;;;;;93.17;27.60;;;;;;;4.12;50.85;101745.83;5126181;56;1141011;-80
2021/03/06 16:24:12;;;;;;;93.73;28.97;;;;;;;4.12;50.85;101745.83;5131582;56;1138988;-79
2021/03/06 16:29:18;;;;;;;10.03;4.67;;;;;;;4.09;51.02;101744.60;5114249;56;1139447;-80
2021/03/06 16:34:24;;;;;;;6.23;3.67;;;;;;;4.05;51.48;101740.36;5149767;56;1136895;-80
2021/03/06 16:39:29;;;;;;;6.50;2.57;;;;;;;4.04;51.75;101743.88;5160779;56;1135041;-79
2021/03/06 16:44:35;;;;;;;9.37;3.13;;;;;;;4.02;52.07;101742.61;5156750;56;1134983;-79
2021/03/06 16:49:44;;;;;;;8.97;3.83;;;;;;;4.00;52.43;101750.11;5124886;56;1134846;-79
2021/03/06 16:54:49;;;;;;;13.07;4.77;;;;;;;3.96;52.84;101755.05;5105802;56;1134924;-79
2021/03/06 16:59:57;;;;;;;12.60;5.50;;;;;;;3.94;53.48;101749.00;5129921;56;1136633;-80
2021/03/06 17:05:02;;;;;;;12.30;4.30;;;;;;;3.86;55.36;101742.67;5157417;56;1136469;-80
2021/03/06 17:10:09;;;;;;;5.17;1.87;;;;;;;3.81;56.92;101744.59;5161856;56;1136487;-79
2021/03/06 17:15:15;;;;;;;2.42;1.50;;;;;;;3.74;59.63;101750.45;5042977;57;1134455;-77
2021/03/06 17:20:21;;;;;;;4.70;2.37;;;;;;;3.68;60.90;101755.84;5034888;57;1134436;-79
2021/03/06 17:25:28;;;;;;;7.57;1.80;;;;;;;3.63;61.44;101749.92;4989640;57;1134260;-81
2021/03/06 17:30:34;;;;;;;4.37;2.07;;;;;;;3.58;63.53;101748.33;5091911;56;1134474;-79
2021/03/06 17:35:40;;;;;;;8.40;2.60;;;;;;;3.53;63.95;101746.69;5127586;56;1134429;-82
2021/03/06 17:40:46;;;;;;;8.43;2.50;;;;;;;3.49;64.99;101745.09;5074104;57;1134424;-77
2021/03/06 17:45:51;;;;;;;2.53;2.10;;;;;;;3.46;65.21;101753.47;5143452;56;1134529;-79
2021/03/06 17:50:58;;;;;;;5.07;2.57;;;;;;;3.40;66.14;101747.95;5161854;56;1134357;-85
2021/03/06 17:56:03;;;;;;;11.00;2.27;;;;;;;3.37;66.32;101745.86;5130238;56;1144305;-85
2021/03/06 18:01:10;;;;;;;3.27;1.82;;;;;;;3.31;65.69;101751.28;5161767;56;1136559;-80
2021/03/06 18:06:16;;;;;;;6.33;1.75;;;;;;;3.26;65.51;101750.54;5162236;56;1134590;-82
2021/03/06 18:11:25;;;;;;;7.47;3.15;;;;;;;3.23;65.37;101750.62;5129994;56;1134409;-79
2021/03/06 18:16:30;;;;;;;5.60;2.10;;;;;;;3.16;65.53;101763.02;5124403;56;1134444;-78
2021/03/06 18:21:35;;;;;;;3.47;2.10;;;;;;;3.12;65.41;101767.47;5118609;56;1134459;-76
2021/03/06 18:26:41;;;;;;;4.87;2.33;;;;;;;3.09;65.36;101767.98;5064483;57;1134214;-80
2021/03/06 18:31:48;;;;;;;2.77;2.17;;;;;;;3.08;65.09;101759.29;5064774;57;1134288;-76
2021/03/06 18:36:54;;;;;;;3.33;2.00;;;;;;;3.07;65.25;101755.41;5060624;57;1134376;-84
2021/03/06 18:42:05;;;;;;;8.53;2.90;;;;;;;3.06;65.35;101751.08;5143222;56;1254098;-82
2021/03/06 18:47:06;;;;;;;4.80;2.50;;;;;;;3.07;65.38;101733.19;5140379;56;1134481;-81
2021/03/06 18:52:14;;;;;;;5.77;2.70;;;;;;;3.06;65.89;101726.25;5139161;56;1134412;-81
2021/03/06 18:57:19;;;;;;;7.23;3.00;;;;;;;3.03;66.43;101733.75;5103107;56;1134375;-85
2021/03/06 19:02:34;;;;;;;5.47;2.77;;;;;;;2.96;66.97;101726.95;5141155;56;1134882;-84
2021/03/06 19:07:38;;;;;;;4.40;2.87;;;;;;;2.92;66.81;101727.92;5140121;56;1134782;-83
2021/03/06 19:12:44;;;;;;;5.17;2.80;;;;;;;2.88;67.43;101728.07;4979475;57;1135088;-82
2021/03/06 19:17:50;;;;;;;8.47;4.10;;;;;;;2.81;68.13;101716.91;5072455;57;1135074;-79
2021/03/06 19:23:03;;;;;;;5.23;2.30;;;;;;;2.77;68.02;101706.98;5028507;57;1134929;-81
2021/03/06 19:28:12;;;;;;;4.72;2.85;;;;;;;2.73;68.64;101709.74;5160175;56;1134931;-79
2021/03/06 19:33:20;;;;;;;5.42;3.25;;;;;;;2.71;68.44;101708.47;5155916;56;1134998;-82
2021/03/06 19:38:28;;;;;;;5.30;2.80;;;;;;;2.69;69.01;101697.66;5160592;56;1134977;-81
2021/03/06 19:43:33;;;;;;;46.47;25.17;;;;;;;2.65;69.81;101690.34;5160247;56;1134671;-79
2021/03/06 19:48:39;;;;;;;25.73;13.20;;;;;;;2.64;69.92;101686.45;5144413;56;1140581;-82
2021/03/06 19:53:44;;;;;;;14.50;7.00;;;;;;;2.63;70.25;101676.91;5121600;56;1139053;-80
2021/03/06 19:58:50;;;;;;;10.97;3.73;;;;;;;2.62;70.03;101666.91;5136072;56;1136732;-81
2021/03/06 20:03:56;;;;;;;24.93;10.20;;;;;;;2.57;70.26;101662.72;5117575;56;1136815;-80
2021/03/06 20:09:02;;;;;;;9.38;3.35;;;;;;;2.57;70.26;101662.72;5131939;56;1138959;-80
2021/03/06 20:14:08;;;;;;;7.83;2.67;;;;;;;2.61;70.55;101659.97;5130679;56;1134770;-80
2021/03/06 20:19:14;;;;;;;10.32;4.25;;;;;;;2.59;70.89;101653.09;5141327;56;1135024;-78
2021/03/06 20:24:19;;;;;;;10.50;3.37;;;;;;;2.57;70.65;101649.22;5116927;56;1136817;-78
2021/03/06 20:29:29;;;;;;;3.73;2.07;;;;;;;2.58;70.84;101644.41;5078704;56;1136868;-79
2021/03/06 20:34:36;;;;;;;6.73;3.33;;;;;;;2.56;71.41;101646.64;5111415;56;1134930;-78
2021/03/06 20:39:41;;;;;;;5.27;3.30;;;;;;;2.54;71.16;101634.93;5102566;56;1135030;-79
2021/03/06 20:44:47;;;;;;;6.60;3.60;;;;;;;2.51;71.72;101633.70;5117679;56;1134992;-79
2021/03/06 20:49:52;;;;;;;4.00;2.03;;;;;;;2.52;71.28;101622.80;5132767;56;1134814;-78
2021/03/06 20:54:58;;;;;;;5.83;2.03;;;;;;;2.48;72.34;101624.63;5088093;56;1134723;-79
2021/03/06 21:00:08;;;;;;;9.93;3.00;;;;;;;;;;5066822;57;1134602;-79
2021/03/06 21:05:14;;;;;;;3.60;2.10;;;;;;;2.45;72.49;101624.70;5112914;57;815769;-79
2021/03/06 21:10:23;;;;;;;4.47;2.87;;;;;;;2.46;72.86;101618.59;5086700;57;1132575;-78
2021/03/06 21:15:29;;;;;;;8.47;2.40;;;;;;;2.46;72.47;101615.98;5086344;57;1134279;-79
2021/03/06 21:20:34;;;;;;;6.60;3.77;;;;;;;2.48;72.57;101611.12;5086438;57;1134408;-80
2021/03/06 21:25:41;;;;;;;44.80;11.67;;;;;;;2.46;73.15;101607.70;5086904;57;1134318;-79
2021/03/06 21:30:46;;;;;;;16.83;6.20;;;;;;;2.47;72.96;101605.50;5086210;57;1138373;-80
2021/03/06 21:35:54;;;;;;;12.77;5.17;;;;;;;2.45;73.23;101602.06;5086875;57;1136439;-80
2021/03/06 21:41:00;;;;;;;8.83;4.53;;;;;;;2.48;73.43;101588.94;5086868;57;1136734;-80
2021/03/06 21:46:08;;;;;;;4.33;2.67;;;;;;;2.45;73.95;101579.88;5067407;57;1134441;-80
2021/03/06 21:51:14;;;;;;;19.42;5.90;;;;;;;2.45;74.56;101573.34;5087084;57;1134600;-80
2021/03/06 21:56:20;;;;;;;19.57;6.20;;;;;;;2.51;73.95;101562.34;5075802;57;1136538;-80
2021/03/06 22:01:25;;;;;;;30.50;8.87;;;;;;;2.50;73.95;101561.93;5073568;57;1136444;-80
2021/03/06 22:06:31;;;;;;;9.77;2.50;;;;;;;2.50;74.89;101537.98;5073230;57;1136431;-80
2021/03/06 22:11:36;;;;;;;10.97;4.23;;;;;;;2.50;74.98;101541.05;5073260;57;1134291;-80
2021/03/06 22:16:42;;;;;;;9.37;3.90;;;;;;;2.48;75.12;101526.72;5116835;56;1136310;-80
2021/03/06 22:21:48;;;;;;;9.30;2.55;;;;;;;2.47;75.16;101523.25;4964081;58;1134343;-80
2021/03/06 22:26:53;;;;;;;6.13;3.03;;;;;;;2.48;75.26;101521.05;5158873;56;1134560;-80
2021/03/06 22:31:59;;;;;;;2.70;2.37;;;;;;;2.48;75.33;101522.36;4993194;57;1134451;-79
2021/03/06 22:37:06;;;;;;;9.55;4.92;;;;;;;2.48;75.33;101518.44;5080915;57;1134844;-81
2021/03/06 22:42:12;;;;;;;8.43;3.70;;;;;;;2.50;74.96;101510.56;5049216;57;1134800;-80
2021/03/06 22:47:17;;;;;;;9.45;3.65;;;;;;;2.51;75.03;101501.84;4939040;57;1134526;-79
2021/03/06 22:52:23;;;;;;;3.80;2.45;;;;;;;2.46;75.60;101504.57;5086588;56;1134450;-80
2021/03/06 22:57:28;;;;;;;6.30;3.53;;;;;;;2.50;75.36;101493.59;5085529;56;1134272;-80
2021/03/06 23:02:34;;;;;;;6.20;2.90;;;;;;;2.48;75.47;101481.89;5094615;56;1134285;-81
2021/03/06 23:07:43;;;;;;;5.53;3.47;;;;;;;2.50;75.55;101479.23;4972953;58;1134569;-80
2021/03/06 23:12:48;;;;;;;9.47;4.17;;;;;;;2.53;75.45;101469.16;5157769;56;1134253;-80
2021/03/06 23:17:54;;;;;;;4.43;4.03;;;;;;;2.52;75.72;101470.91;4982276;58;1134422;-80